Time;durP1;ratioP1;P1;durP2;ratioP2;P2;SDS_P1;SDS_P2;PMS_P1;PMS_P2;Temp;Humidity;BMP_temperature;BMP_pressure;BME280_temperature;BME280_humidity;BME280_pressure;Samples;Min_cycle;Max_cycle;Signal;HPM_P1;HPM_P2
2021/11/09 00:05:19;;;;;;;10.83;5.40;;;;;;;1.52;90.40;102731.88;6784375;23;20569;-74
2021/11/09 00:08:25;;;;;;;8.50;5.10;;;;;;;1.53;89.91;102728.22;6047130;29;20219;-74
2021/11/09 00:11:31;;;;;;;12.63;5.33;;;;;;;1.40;89.99;102732.78;6048092;29;20191;-73
2021/11/09 00:14:35;;;;;;;10.80;5.17;;;;;;;1.39;90.12;102726.53;6048617;29;20202;-73
2021/11/09 00:17:40;;;;;;;7.83;5.47;;;;;;;1.57;87.90;102724.31;6048082;29;20195;-73
2021/11/09 00:20:45;;;;;;;14.60;5.70;;;;;;;1.44;88.30;102723.53;6047198;29;20508;-72
2021/11/09 00:23:50;;;;;;;5.63;4.33;;;;;;;1.17;88.73;102732.63;6047501;29;20198;-73
2021/11/09 00:26:54;;;;;;;11.10;4.87;;;;;;;1.28;87.28;102721.09;6048331;29;20222;-72
2021/11/09 00:29:58;;;;;;;9.77;4.13;;;;;;;1.11;87.44;102730.38;6048372;29;20261;-73
2021/11/09 00:33:06;;;;;;;5.23;4.00;;;;;;;1.07;88.17;102720.81;6048040;29;20226;-73
2021/11/09 00:36:12;;;;;;;13.03;4.47;;;;;;;1.03;88.01;102724.66;6047411;29;20255;-74
2021/11/09 00:39:17;;;;;;;11.03;4.70;;;;;;;1.06;87.29;102721.78;6048027;29;20196;-73
2021/11/09 00:42:21;;;;;;;5.53;4.70;;;;;;;1.10;87.21;102725.09;6046995;29;20420;-74
2021/11/09 00:45:26;;;;;;;5.10;3.57;;;;;;;1.02;87.45;102717.59;6048161;29;20194;-74
2021/11/09 00:48:30;;;;;;;5.33;4.17;;;;;;;0.97;87.74;102724.25;6047857;29;20323;-73
2021/11/09 00:51:36;;;;;;;4.60;4.20;;;;;;;0.99;87.61;102733.06;6047954;29;20194;-74
2021/11/09 00:54:40;;;;;;;4.13;3.83;;;;;;;0.85;88.31;102722.47;6046789;29;20589;-74
2021/11/09 00:57:48;;;;;;;5.27;4.30;;;;;;;0.93;87.83;102731.69;6048077;29;20268;-74
2021/11/09 01:00:52;;;;;;;5.73;4.40;;;;;;;0.69;88.15;102709.25;6048070;29;20193;-74
2021/11/09 01:03:57;;;;;;;4.50;4.10;;;;;;;0.65;89.69;102718.47;6048038;29;20250;-74
2021/11/09 01:07:03;;;;;;;9.27;3.53;;;;;;;0.83;89.08;102710.94;6046664;29;20538;-74
2021/11/09 01:10:10;;;;;;;6.43;3.23;;;;;;;0.61;91.25;102716.97;6050564;29;20198;-73
2021/11/09 01:13:15;;;;;;;5.27;3.57;;;;;;;0.60;91.08;102694.63;6050836;29;20544;-73
2021/11/09 01:16:20;;;;;;;10.37;3.23;;;;;;;0.72;92.32;102687.50;6052110;29;20306;-74
2021/11/09 01:19:25;;;;;;;5.43;3.20;;;;;;;0.61;94.13;102690.13;6050949;29;20261;-73
2021/11/09 01:22:31;;;;;;;5.40;3.30;;;;;;;0.36;96.18;102695.47;6051017;29;20230;-73
2021/11/09 01:25:35;;;;;;;4.63;3.37;;;;;;;0.19;96.94;102688.56;6051450;29;20229;-74
2021/11/09 01:28:42;;;;;;;4.53;3.40;;;;;;;0.47;96.10;102674.09;6051340;29;20436;-73
2021/11/09 01:31:46;;;;;;;4.17;3.80;;;;;;;0.64;93.96;102673.78;6050297;29;20387;-74
2021/11/09 01:34:50;;;;;;;3.40;3.17;;;;;;;0.81;91.96;102676.13;6050448;29;20201;-73
2021/11/09 01:37:57;;;;;;;3.83;3.60;;;;;;;0.67;90.34;102673.53;6050617;29;20201;-74
2021/11/09 01:41:02;;;;;;;3.97;3.67;;;;;;;0.35;90.53;102672.28;6050291;29;20455;-74
2021/11/09 01:44:06;;;;;;;3.40;2.93;;;;;;;0.63;89.47;102677.44;6050177;29;20200;-74
2021/11/09 01:47:11;;;;;;;4.10;3.67;;;;;;;0.32;88.98;102680.53;6051359;29;20277;-74
2021/11/09 01:50:18;;;;;;;4.87;3.63;;;;;;;0.20;88.78;102678.72;6051315;29;20218;-73
2021/11/09 01:53:24;;;;;;;5.00;4.07;;;;;;;0.10;89.21;102680.31;6051242;29;20194;-73
2021/11/09 01:56:31;;;;;;;6.67;4.33;;;;;;;-0.09;88.91;102683.38;6050934;29;20257;-74
2021/11/09 01:59:35;;;;;;;5.07;4.10;;;;;;;0.04;88.25;102675.34;6050854;29;20286;-73
2021/11/09 02:02:40;;;;;;;5.00;4.47;;;;;;;-0.31;89.20;102673.22;6050979;29;20257;-74
2021/11/09 02:05:45;;;;;;;9.87;4.00;;;;;;;0.03;89.69;102665.59;6050048;29;20239;-73
2021/11/09 02:08:51;;;;;;;4.43;4.13;;;;;;;0.25;87.84;102671.19;6049522;29;20253;-74
2021/11/09 02:11:55;;;;;;;4.60;4.13;;;;;;;0.39;86.14;102673.75;6050811;29;20193;-73
2021/11/09 02:15:00;;;;;;;3.93;3.53;;;;;;;0.44;85.85;102661.75;6049455;29;20235;-73
2021/11/09 02:18:09;;;;;;;3.63;3.50;;;;;;;0.50;85.46;102671.19;6050744;29;20239;-74
2021/11/09 02:21:16;;;;;;;4.73;3.87;;;;;;;0.59;84.36;102659.81;6050448;29;20202;-73
2021/11/09 02:24:21;;;;;;;3.97;3.67;;;;;;;0.60;84.51;102656.16;6050615;29;20258;-74
2021/11/09 02:27:25;;;;;;;4.83;3.57;;;;;;;0.70;83.99;102654.53;6049307;29;20194;-74
2021/11/09 02:30:31;;;;;;;3.93;3.53;;;;;;;0.54;84.24;102657.44;6050220;29;20222;-74
2021/11/09 02:33:37;;;;;;;3.77;3.50;;;;;;;0.31;85.55;102650.13;6050311;29;20266;-74
2021/11/09 02:36:43;;;;;;;6.50;4.00;;;;;;;0.21;86.65;102664.31;6050029;29;20199;-73
2021/11/09 02:39:47;;;;;;;4.27;3.87;;;;;;;0.37;86.46;102654.22;6048930;29;20488;-74
2021/11/09 02:42:56;;;;;;;3.90;3.37;;;;;;;0.19;86.85;102644.75;6049869;29;20196;-74
2021/11/09 02:49:27;;;;;;;3.63;3.33;;;;;;;0.04;87.91;102646.69;6039860;29;20229;-74
2021/11/09 02:52:34;;;;;;;3.50;3.30;;;;;;;-0.33;89.41;102637.59;6049959;29;20451;-74
2021/11/09 02:55:41;;;;;;;4.00;3.70;;;;;;;-0.04;88.47;102639.16;6049781;29;20200;-74
2021/11/09 02:58:51;;;;;;;3.30;3.10;;;;;;;-0.05;88.50;102642.81;6049771;29;20205;-73
2021/11/09 03:01:59;;;;;;;2.80;2.60;;;;;;;0.12;88.14;102638.09;6049448;29;20195;-73
2021/11/09 03:05:10;;;;;;;3.17;3.07;;;;;;;0.30;87.79;102632.31;6049046;29;20239;-73
2021/11/09 03:08:27;;;;;;;3.10;2.83;;;;;;;0.13;87.24;102645.22;6049232;29;20194;-73
2021/11/09 03:11:32;;;;;;;2.60;2.50;;;;;;;0.23;87.74;102640.91;6049254;29;20256;-74
2021/11/09 03:14:37;;;;;;;2.67;2.57;;;;;;;0.25;88.03;102638.97;6049415;29;20201;-74
2021/11/09 03:17:44;;;;;;;2.53;2.40;;;;;;;0.23;87.57;102640.91;6048612;29;20220;-74
2021/11/09 03:20:54;;;;;;;2.70;2.60;;;;;;;0.24;87.17;102637.25;6049366;29;20376;-74
2021/11/09 03:44:10;;;;;;;3.27;2.37;;;;;;;0.43;86.10;102626.94;6048870;29;20225;-73
2021/11/09 03:44:19;;;;;;;2.63;2.40;;;;;;;0.29;85.99;102640.47;6047474;29;20556;-74
2021/11/09 03:47:24;;;;;;;2.20;2.10;;;;;;;0.30;86.24;102643.06;6048866;29;20230;-74
2021/11/09 03:50:29;;;;;;;2.47;2.23;;;;;;;0.31;86.68;102643.94;6048418;29;20218;-73
2021/11/09 03:53:36;;;;;;;2.20;2.20;;;;;;;0.30;85.71;102626.09;6048355;29;20240;-74
2021/11/09 03:56:46;;;;;;;2.30;2.20;;;;;;;0.17;87.07;102628.78;6048729;29;20191;-74
2021/11/09 04:00:00;;;;;;;2.27;2.20;;;;;;;0.20;87.48;102625.03;6047310;29;20511;-74
2021/11/09 04:03:12;;;;;;;2.37;2.27;;;;;;;0.22;86.63;102617.72;6048392;29;20230;-74
2021/11/09 04:06:28;;;;;;;1.80;1.80;;;;;;;0.27;86.79;102615.56;6048667;29;20298;-73
2021/11/09 04:09:42;;;;;;;3.13;2.10;;;;;;;0.34;86.78;102622.22;6047298;29;20249;-74
2021/11/09 04:13:04;;;;;;;2.87;2.30;;;;;;;0.42;86.63;102622.53;6047307;29;20587;-73
2021/11/09 04:16:25;;;;;;;2.30;2.20;;;;;;;0.49;86.56;102618.44;6047258;29;20364;-73
2021/11/09 04:19:39;;;;;;;2.33;2.23;;;;;;;0.62;86.09;102619.28;6048067;29;20230;-73
2021/11/09 04:26:30;;;;;;;2.17;2.17;;;;;;;0.58;86.58;102604.38;6047573;29;20278;-73
2021/11/09 04:29:55;;;;;;;3.23;2.43;;;;;;;0.61;86.68;102588.91;6048366;29;20219;-74
2021/11/09 04:33:23;;;;;;;2.10;2.00;;;;;;;0.55;87.37;102588.47;6048097;29;20197;-73
2021/11/09 04:50:27;;;;;;;2.37;2.27;;;;;;;0.86;87.17;102587.97;6035946;29;20609;-73
2021/11/09 04:53:47;;;;;;;1.93;1.93;;;;;;;0.86;87.04;102585.28;6052165;29;20262;-73
2021/11/09 05:10:31;;;;;;;4.57;2.00;;;;;;;0.97;87.62;102589.88;5986775;29;20231;-73
2021/11/09 05:13:35;;;;;;;2.93;1.90;;;;;;;1.02;87.46;102598.47;6005263;29;20196;-73
2021/11/09 05:16:40;;;;;;;1.80;1.80;;;;;;;0.93;87.87;102578.47;6005672;29;20195;-73
2021/11/09 05:19:46;;;;;;;2.20;2.03;;;;;;;0.89;88.52;102585.06;6004857;29;20232;-73
2021/11/09 05:22:50;;;;;;;1.90;1.90;;;;;;;1.06;88.09;102584.66;6005870;29;20203;-74
2021/11/09 05:25:55;;;;;;;2.47;2.27;;;;;;;1.12;87.69;102584.22;6005970;29;20244;-73
2021/11/09 05:28:59;;;;;;;2.40;2.30;;;;;;;1.13;88.13;102583.22;6004660;29;20204;-73
2021/11/09 05:32:04;;;;;;;2.13;2.03;;;;;;;1.18;87.94;102578.38;6004487;29;20502;-73
2021/11/09 05:35:11;;;;;;;2.73;2.60;;;;;;;1.28;87.71;102574.03;6004548;29;20479;-72
2021/11/09 05:38:18;;;;;;;2.00;1.90;;;;;;;1.16;88.21;102585.69;6004362;29;20216;-73
2021/11/09 05:41:23;;;;;;;2.33;2.13;;;;;;;1.15;87.75;102575.94;6005666;29;20279;-74
2021/11/09 05:44:29;;;;;;;2.33;2.23;;;;;;;1.15;88.32;102578.63;6004907;29;20195;-74
2021/11/09 05:47:33;;;;;;;3.40;2.23;;;;;;;1.17;88.42;102582.06;6004389;29;20586;-73
2021/11/09 05:50:38;;;;;;;2.50;2.30;;;;;;;1.30;88.33;102571.22;6004561;29;20222;-74
2021/11/09 05:53:43;;;;;;;2.30;2.10;;;;;;;1.34;88.04;102566.47;6004282;29;20304;-74
2021/11/09 05:56:47;;;;;;;2.50;2.33;;;;;;;1.36;88.98;102564.53;6005174;29;20257;-74
2021/11/09 05:59:51;;;;;;;2.73;2.00;;;;;;;1.43;88.25;102555.03;6005501;29;20229;-74
2021/11/09 06:02:55;;;;;;;2.27;2.17;;;;;;;1.56;87.86;102555.81;6005059;29;20205;-74
2021/11/09 06:06:01;;;;;;;2.60;2.40;;;;;;;1.51;88.41;102548.09;6034722;29;20240;-74
2021/11/09 06:09:06;;;;;;;2.93;2.40;;;;;;;1.45;88.58;102547.69;6049722;29;20191;-74
2021/11/09 06:12:13;;;;;;;2.10;2.00;;;;;;;1.42;89.37;102547.91;6050811;29;20215;-74
2021/11/09 06:15:17;;;;;;;3.37;2.37;;;;;;;1.43;89.63;102544.28;6049572;29;20478;-74
2021/11/09 06:18:21;;;;;;;2.87;2.70;;;;;;;1.40;90.58;102550.75;6050668;29;20190;-74
2021/11/09 06:21:27;;;;;;;4.83;2.70;;;;;;;1.60;89.97;102546.50;6049819;29;20227;-74
2021/11/09 06:24:31;;;;;;;3.93;2.70;;;;;;;1.68;89.46;102538.72;6049503;29;20463;-74
2021/11/09 06:27:35;;;;;;;2.30;2.30;;;;;;;1.79;89.18;102536.06;6049391;29;20197;-74
2021/11/09 06:30:40;;;;;;;2.53;2.33;;;;;;;1.72;89.01;102532.13;6049475;29;20221;-74
2021/11/09 06:33:44;;;;;;;3.17;2.30;;;;;;;1.72;90.32;102540.22;6050207;29;20192;-74
2021/11/09 06:36:49;;;;;;;3.23;2.37;;;;;;;1.80;89.54;102537.75;6049921;29;20231;-74
2021/11/09 06:39:53;;;;;;;2.53;2.43;;;;;;;1.71;90.40;102538.47;6048946;29;20262;-74
2021/11/09 06:42:58;;;;;;;2.10;2.10;;;;;;;1.73;90.58;102531.16;6050319;29;20272;-74
2021/11/09 06:46:02;;;;;;;2.10;2.00;;;;;;;1.77;90.87;102532.63;6048687;29;20432;-74
2021/11/09 06:49:06;;;;;;;2.63;2.50;;;;;;;1.92;90.27;102525.19;6049530;29;20192;-74
2021/11/09 06:52:13;;;;;;;2.20;2.20;;;;;;;1.94;91.28;102529.47;6049656;29;20222;-74
2021/11/09 06:55:17;;;;;;;2.10;2.10;;;;;;;2.00;91.13;102522.75;6049188;29;20222;-74
2021/11/09 06:58:21;;;;;;;3.80;2.40;;;;;;;1.99;91.87;102519.19;6049528;29;20264;-74
2021/11/09 07:01:26;;;;;;;2.67;2.47;;;;;;;2.08;92.78;102513.06;6047787;29;20300;-73
2021/11/09 07:04:31;;;;;;;2.60;2.50;;;;;;;2.15;92.77;102517.03;6048685;29;20231;-74
2021/11/09 07:07:37;;;;;;;2.47;2.23;;;;;;;2.19;93.09;102523.00;6048043;29;20270;-73
2021/11/09 07:10:43;;;;;;;5.57;2.30;;;;;;;2.23;93.11;102525.34;6048801;29;20308;-74
2021/11/09 07:13:48;;;;;;;8.50;3.43;;;;;;;2.27;93.07;102513.34;6047999;29;20603;-74
2021/11/09 07:16:52;;;;;;;6.53;2.37;;;;;;;2.26;93.99;102519.69;6047703;29;20357;-74
2021/11/09 07:19:58;;;;;;;2.10;2.00;;;;;;;2.40;93.86;102515.91;6049241;29;20198;-74
2021/11/09 07:23:04;;;;;;;3.07;1.83;;;;;;;2.40;94.18;102522.16;6047527;29;20194;-74
2021/11/09 07:26:08;;;;;;;2.30;2.20;;;;;;;2.50;93.57;102517.72;6048557;29;20193;-74
2021/11/09 07:29:13;;;;;;;2.80;2.10;;;;;;;2.51;94.23;102523.97;6048242;29;20222;-74
2021/11/09 07:32:20;;;;;;;3.03;2.10;;;;;;;2.55;94.92;102528.13;6047444;29;20520;-74
2021/11/09 07:35:24;;;;;;;3.57;1.87;;;;;;;2.58;95.23;102535.09;6049083;29;20264;-74
2021/11/09 07:38:30;;;;;;;2.47;2.27;;;;;;;2.68;94.89;102522.59;6047820;29;20380;-75
2021/11/09 07:41:34;;;;;;;2.60;1.70;;;;;;;2.70;94.75;102529.56;6047897;29;20228;-74
2021/11/09 07:44:38;;;;;;;2.40;2.00;;;;;;;2.81;94.65;102517.91;6048829;29;20256;-74
2021/11/09 07:47:43;;;;;;;1.70;1.70;;;;;;;2.74;94.13;102519.41;6047560;29;20551;-74
2021/11/09 07:50:47;;;;;;;1.53;1.50;;;;;;;2.83;94.77;102524.03;6048081;29;20194;-74
2021/11/09 07:53:54;;;;;;;1.70;1.60;;;;;;;2.84;94.33;102525.75;6047867;29;20200;-74
2021/11/09 07:57:02;;;;;;;1.63;1.63;;;;;;;2.94;94.26;102515.94;6048625;29;20191;-74
2021/11/09 08:00:20;;;;;;;1.80;1.60;;;;;;;3.04;94.02;102523.13;6048340;29;20242;-74
2021/11/09 08:03:34;;;;;;;1.63;1.63;;;;;;;3.00;94.23;102526.22;6048034;29;20198;-74
2021/11/09 08:06:47;;;;;;;2.13;1.57;;;;;;;2.98;94.70;102522.75;6047417;29;20410;-73
2021/11/09 08:09:53;;;;;;;1.87;1.70;;;;;;;3.07;94.54;102511.22;6047006;29;20193;-74
2021/11/09 08:12:57;;;;;;;2.03;1.67;;;;;;;3.07;94.31;102505.84;6048194;29;20224;-74
2021/11/09 08:16:01;;;;;;;1.50;1.50;;;;;;;3.19;94.43;102510.19;6048441;29;20250;-73
2021/11/09 08:19:07;;;;;;;2.77;1.60;;;;;;;3.23;93.77;102500.88;6050201;29;20499;-74
2021/11/09 08:22:11;;;;;;;1.60;1.60;;;;;;;3.27;93.56;102499.63;6051850;29;20202;-74
2021/11/09 08:25:17;;;;;;;1.70;1.60;;;;;;;3.26;94.28;102500.63;6052619;29;20194;-74
2021/11/09 08:28:22;;;;;;;2.10;1.90;;;;;;;3.22;94.42;102488.34;6053210;29;20191;-73
2021/11/09 08:31:26;;;;;;;3.03;1.80;;;;;;;3.30;94.20;102496.66;6051430;29;20457;-73
2021/11/09 08:34:31;;;;;;;1.70;1.70;;;;;;;3.39;93.76;102495.88;6052157;29;20201;-73
2021/11/09 08:37:35;;;;;;;7.43;1.70;;;;;;;3.45;93.62;102494.50;6051974;29;20200;-72
2021/11/09 08:40:41;;;;;;;2.30;1.60;;;;;;;3.47;94.23;102482.59;6051735;29;20420;-73
2021/11/09 08:43:56;;;;;;;1.53;1.43;;;;;;;3.48;93.65;102484.31;6051382;29;20509;-73
2021/11/09 08:47:01;;;;;;;6.93;1.40;;;;;;;3.54;93.32;102489.19;6051292;29;20490;-73
2021/11/09 08:50:07;;;;;;;1.63;1.60;;;;;;;3.45;94.66;102484.56;6052111;29;20201;-73
2021/11/09 08:53:15;;;;;;;2.47;1.40;;;;;;;3.63;93.45;102485.69;6052007;29;20222;-73
2021/11/09 08:56:45;;;;;;;4.77;1.50;;;;;;;3.57;94.84;102488.06;6052319;29;20261;-73
2021/11/09 09:06:35;;;;;;;2.13;1.60;;;;;;;3.83;93.23;102483.13;6050879;29;20275;-73
2021/11/09 09:09:39;;;;;;;1.50;1.50;;;;;;;3.89;92.79;102490.66;6050806;29;20196;-73
2021/11/09 09:12:45;;;;;;;1.50;1.50;;;;;;;3.86;93.66;102474.72;6051578;29;20283;-73
2021/11/09 09:15:50;;;;;;;1.50;1.40;;;;;;;3.93;93.72;102475.91;6051710;29;20273;-73
2021/11/09 09:18:55;;;;;;;2.10;1.40;;;;;;;3.92;94.49;102476.91;6051706;29;20194;-73
2021/11/09 09:22:05;;;;;;;1.70;1.70;;;;;;;3.86;95.72;102472.03;6051726;29;20271;-73
2021/11/09 09:25:31;;;;;;;1.53;1.53;;;;;;;3.95;95.81;102484.75;6050485;29;20265;-73
2021/11/09 09:32:26;;;;;;;1.60;1.60;;;;;;;4.02;94.46;102467.00;6051373;29;20226;-73
2021/11/09 09:55:39;;;;;;;0.90;0.90;;;;;;;3.72;95.83;102421.97;6048829;29;20282;-73
2021/11/09 09:58:43;;;;;;;1.40;1.23;;;;;;;3.88;95.90;102426.88;6049615;29;20470;-73
2021/11/09 10:02:11;;;;;;;1.13;1.13;;;;;;;3.98;95.13;102422.38;6051010;29;20260;-74
2021/11/09 10:05:17;;;;;;;1.27;1.27;;;;;;;3.98;94.61;102422.38;6049971;29;20420;-73
2021/11/09 10:08:21;;;;;;;1.93;1.03;;;;;;;3.99;94.68;102418.66;6050411;29;20248;-73
2021/11/09 10:11:31;;;;;;;1.10;1.00;;;;;;;3.87;95.07;102420.59;6050781;29;20225;-74
2021/11/09 10:14:37;;;;;;;1.33;1.20;;;;;;;3.96;95.56;102413.50;6049599;29;20271;-74
2021/11/09 10:17:47;;;;;;;0.80;0.80;;;;;;;3.80;95.63;102425.66;6050408;29;20339;-73
2021/11/09 10:20:54;;;;;;;2.17;1.23;;;;;;;3.59;96.74;102403.28;6050655;29;20261;-74
2021/11/09 10:23:58;;;;;;;1.13;1.13;;;;;;;3.79;96.57;102396.97;6050580;29;20270;-73
2021/11/09 10:27:12;;;;;;;1.10;1.10;;;;;;;3.75;95.93;102395.53;6049141;29;20476;-73
2021/11/09 10:30:19;;;;;;;7.80;1.93;;;;;;;3.69;97.09;102387.97;6050030;29;20192;-74
2021/11/09 10:33:30;;;;;;;1.00;1.00;;;;;;;3.86;96.96;102385.63;6049012;29;20439;-74
2021/11/09 10:36:34;;;;;;;1.10;1.10;;;;;;;3.75;96.98;102379.31;6050290;29;20272;-73
2021/11/09 10:39:46;;;;;;;1.90;1.00;;;;;;;3.68;97.04;102383.56;6049998;29;20203;-74
2021/11/09 10:42:52;;;;;;;1.10;1.10;;;;;;;3.74;97.78;102372.25;6050000;29;20243;-73
2021/11/09 10:45:57;;;;;;;1.30;1.30;;;;;;;3.76;97.53;102375.66;6048783;29;20496;-74
2021/11/09 10:49:03;;;;;;;1.00;1.00;;;;;;;3.86;97.73;102364.03;6049686;29;20278;-73
2021/11/09 10:52:07;;;;;;;0.80;0.80;;;;;;;3.90;97.28;102365.47;6049832;29;20201;-74
2021/11/09 10:55:19;;;;;;;0.90;0.90;;;;;;;3.96;97.71;102364.91;6049515;29;20238;-73
2021/11/09 11:05:18;;;;;;;3.33;1.00;;;;;;;3.95;99.45;102341.59;6048923;29;20241;-73
2021/11/09 11:08:31;;;;;;;0.90;0.90;;;;;;;4.13;98.87;102330.00;6048551;29;20248;-74
2021/11/09 11:11:39;;;;;;;2.93;1.10;;;;;;;4.18;96.82;102313.38;6049384;29;20199;-74
2021/11/09 11:14:46;;;;;;;1.63;1.03;;;;;;;4.11;97.86;102320.34;6049170;29;20223;-73
2021/11/09 11:17:50;;;;;;;1.07;1.07;;;;;;;4.04;99.22;102311.91;6047055;29;20283;-73
2021/11/09 11:20:56;;;;;;;1.20;1.20;;;;;;;4.12;99.83;102305.81;6049216;29;20201;-74
2021/11/09 11:24:00;;;;;;;1.67;1.40;;;;;;;4.11;99.50;102304.13;6048935;29;20300;-73
2021/11/09 11:27:05;;;;;;;1.53;1.43;;;;;;;4.18;99.66;102299.88;6049193;29;20192;-73
2021/11/09 11:30:10;;;;;;;1.43;1.33;;;;;;;4.25;99.76;102292.91;6047805;29;20485;-73
2021/11/09 11:33:15;;;;;;;1.10;1.10;;;;;;;4.14;100.00;102288.47;6048620;29;20321;-73
2021/11/09 11:36:21;;;;;;;6.27;1.40;;;;;;;4.21;100.00;102280.69;6048129;29;20477;-73
2021/11/09 11:39:28;;;;;;;0.97;0.97;;;;;;;4.20;100.00;102281.66;6048021;29;20193;-75
2021/11/09 11:42:39;;;;;;;1.20;1.20;;;;;;;4.27;100.00;102277.41;6048711;29;20194;-73
2021/11/09 11:45:49;;;;;;;1.13;1.13;;;;;;;4.28;100.00;102269.16;6047854;29;20254;-73
2021/11/09 11:48:57;;;;;;;0.90;0.90;;;;;;;4.49;100.00;102265.47;6047554;29;20476;-74
2021/11/09 11:52:24;;;;;;;1.23;1.10;;;;;;;4.53;100.00;102265.03;6048223;29;20193;-73
2021/11/09 11:55:30;;;;;;;2.23;1.10;;;;;;;4.62;100.00;102256.06;6040657;29;20617;-73
2021/11/09 11:58:37;;;;;;;1.83;1.20;;;;;;;4.55;100.00;102254.91;6047403;29;20216;-73
2021/11/09 12:01:42;;;;;;;2.80;1.00;;;;;;;4.55;100.00;102244.09;6047190;29;20343;-74
2021/11/09 12:04:52;;;;;;;1.03;1.00;;;;;;;4.61;100.00;102238.13;6047866;29;20268;-73
2021/11/09 12:07:58;;;;;;;0.80;0.80;;;;;;;4.62;100.00;102237.16;6047211;29;20200;-73
2021/11/09 12:11:04;;;;;;;1.20;0.90;;;;;;;4.72;100.00;102224.47;6048145;29;20198;-73
2021/11/09 12:14:21;;;;;;;1.50;1.00;;;;;;;4.70;100.00;102212.09;6047035;29;20408;-73
2021/11/09 12:17:32;;;;;;;0.90;0.90;;;;;;;4.78;100.00;102202.22;6048372;29;20192;-73
2021/11/09 12:20:42;;;;;;;3.53;1.10;;;;;;;4.70;100.00;102194.00;6047065;29;20255;-73
2021/11/09 12:24:13;;;;;;;1.20;1.10;;;;;;;4.69;100.00;102186.91;6047340;29;20203;-73
2021/11/09 12:27:29;;;;;;;1.10;1.10;;;;;;;4.79;100.00;102186.84;6046222;29;20215;-73
2021/11/09 12:30:49;;;;;;;2.27;1.30;;;;;;;4.85;100.00;102187.09;6047940;29;20193;-74
2021/11/09 12:33:58;;;;;;;1.00;1.00;;;;;;;4.90;100.00;102184.00;6048289;29;20221;-73
2021/11/09 12:37:17;;;;;;;1.20;1.20;;;;;;;4.85;100.00;102173.59;6047972;29;20229;-73
2021/11/09 12:40:34;;;;;;;1.20;1.20;;;;;;;5.00;100.00;102180.25;6047133;29;20280;-74
2021/11/09 12:43:45;;;;;;;1.63;1.20;;;;;;;4.97;100.00;102164.31;6047593;29;20272;-74
2021/11/09 12:46:53;;;;;;;2.63;1.30;;;;;;;4.99;100.00;102154.19;6047324;29;20248;-73
2021/11/09 12:49:57;;;;;;;1.33;1.30;;;;;;;5.10;100.00;102155.00;6048079;29;20193;-73
2021/11/09 12:53:08;;;;;;;3.90;1.33;;;;;;;5.08;100.00;102150.56;6047295;29;20276;-73
2021/11/09 12:56:16;;;;;;;1.40;1.30;;;;;;;5.14;100.00;102142.84;6047457;29;20227;-73
2021/11/09 12:59:28;;;;;;;4.53;1.10;;;;;;;5.16;100.00;102130.06;6048005;29;20202;-73
2021/11/09 13:02:40;;;;;;;2.50;1.13;;;;;;;5.20;100.00;102120.63;6047930;29;20192;-73
2021/11/09 13:05:52;;;;;;;1.20;1.10;;;;;;;5.34;100.00;102112.00;6049138;29;20272;-73
2021/11/09 13:09:06;;;;;;;3.63;1.07;;;;;;;5.41;100.00;102102.25;6050861;29;20537;-73
2021/11/09 13:12:16;;;;;;;1.90;1.50;;;;;;;5.41;100.00;102102.25;6052030;29;20202;-73
2021/11/09 13:15:22;;;;;;;1.40;1.20;;;;;;;5.47;100.00;102099.78;6050807;29;20409;-73
2021/11/09 13:18:31;;;;;;;1.80;1.47;;;;;;;5.41;100.00;102096.84;6051997;29;20194;-73
2021/11/09 13:21:38;;;;;;;1.10;1.10;;;;;;;5.48;100.00;102087.97;6051569;29;20195;-73
2021/11/09 13:24:55;;;;;;;3.70;1.20;;;;;;;5.63;100.00;102081.00;6051844;29;20228;-73
2021/11/09 13:28:05;;;;;;;4.80;1.50;;;;;;;5.65;100.00;102072.72;6051378;29;20195;-73
2021/11/09 13:31:30;;;;;;;1.17;1.10;;;;;;;5.63;100.00;102069.31;6051267;29;20259;-73
2021/11/09 13:34:35;;;;;;;3.27;1.27;;;;;;;5.56;100.00;102062.81;6050671;29;20290;-76
2021/11/09 13:37:40;;;;;;;5.00;1.50;;;;;;;5.53;100.00;102063.13;6050219;29;20202;-73
2021/11/09 13:40:48;;;;;;;1.53;1.10;;;;;;;5.66;100.00;102050.06;6050543;29;20224;-73
2021/11/09 13:43:56;;;;;;;2.73;1.00;;;;;;;5.64;100.00;102038.53;6051120;29;20278;-73
2021/11/09 13:47:01;;;;;;;2.27;1.40;;;;;;;5.71;100.00;102028.78;6050999;29;20205;-73
2021/11/09 13:50:09;;;;;;;1.20;1.10;;;;;;;5.77;100.00;102033.56;6049974;29;20483;-73
2021/11/09 13:53:23;;;;;;;1.30;1.30;;;;;;;5.72;100.00;102019.66;6050934;29;20194;-73
2021/11/09 13:56:29;;;;;;;1.67;1.10;;;;;;;5.77;100.00;102022.75;6049773;29;20455;-73
2021/11/09 13:59:35;;;;;;;1.50;1.40;;;;;;;5.82;100.00;102031.25;6050184;29;20217;-73
2021/11/09 14:02:44;;;;;;;2.13;1.30;;;;;;;5.88;100.00;102036.03;6051126;29;20194;-73
2021/11/09 14:19:15;;;;;;;3.10;1.23;;;;;;;5.91;100.00;102014.06;6042353;29;20216;-74
2021/11/09 14:22:20;;;;;;;1.17;1.10;;;;;;;6.06;100.00;101990.78;6050402;29;20335;-74
2021/11/09 14:25:27;;;;;;;1.63;1.10;;;;;;;6.07;100.00;101987.09;6050292;29;20197;-74
2021/11/09 14:28:33;;;;;;;4.10;1.37;;;;;;;6.06;100.00;101979.13;6050524;29;20190;-74
2021/11/09 14:31:45;;;;;;;5.43;1.13;;;;;;;6.07;100.00;101973.53;6050042;29;20234;-73
2021/11/09 14:34:58;;;;;;;1.00;1.00;;;;;;;6.11;100.00;101972.19;6050062;29;20195;-74
2021/11/09 14:38:06;;;;;;;1.57;1.23;;;;;;;6.16;100.00;101969.84;6049002;29;20378;-73
2021/11/09 14:41:21;;;;;;;1.13;1.13;;;;;;;6.16;100.00;101969.84;6050056;29;20200;-78
2021/11/09 14:44:27;;;;;;;1.40;1.30;;;;;;;6.25;100.00;101958.06;6049344;29;20195;-73
2021/11/09 14:47:40;;;;;;;1.10;1.10;;;;;;;6.25;100.00;101963.47;6049897;29;20270;-72
2021/11/09 14:50:49;;;;;;;1.40;1.20;;;;;;;6.18;100.00;101951.59;6049588;29;20194;-72
2021/11/09 14:54:00;;;;;;;3.23;1.10;;;;;;;6.19;100.00;101941.59;6049265;29;20198;-74
2021/11/09 14:57:07;;;;;;;1.23;1.23;;;;;;;6.22;100.00;101925.84;6048590;29;20524;-74
2021/11/09 15:00:14;;;;;;;1.30;1.20;;;;;;;6.29;100.00;101921.47;6050170;29;20260;-72
2021/11/09 15:03:22;;;;;;;1.17;1.00;;;;;;;6.24;100.00;101923.81;6049946;29;20303;-73
2021/11/09 15:06:35;;;;;;;1.20;1.20;;;;;;;6.25;100.00;101936.38;6048568;29;20321;-73
2021/11/09 15:10:07;;;;;;;1.53;1.00;;;;;;;6.43;100.00;101916.44;6049348;29;20239;-73
2021/11/09 15:13:28;;;;;;;3.27;0.90;;;;;;;6.38;100.00;101913.38;6048692;29;20194;-73
2021/11/09 15:30:24;;;;;;;0.93;0.93;;;;;;;6.41;100.00;101880.53;6045599;29;20515;-73
2021/11/09 15:33:30;;;;;;;2.30;1.10;;;;;;;6.43;100.00;101886.63;6047923;29;20194;-73
2021/11/09 15:40:02;;;;;;;1.50;1.00;;;;;;;6.50;100.00;101885.81;6048060;29;20210;-73
2021/11/09 15:43:07;;;;;;;2.50;1.23;;;;;;;6.51;100.00;101914.63;6047626;29;20318;-73
2021/11/09 15:46:13;;;;;;;1.00;1.00;;;;;;;6.59;100.00;101886.69;6047598;29;20429;-73
2021/11/09 15:49:17;;;;;;;7.17;1.10;;;;;;;6.46;100.00;101895.28;6047168;29;20212;-73
2021/11/09 15:52:23;;;;;;;1.53;1.00;;;;;;;6.49;100.00;101867.00;6047488;29;20312;-73
2021/11/09 15:55:28;;;;;;;2.23;1.20;;;;;;;6.54;100.00;101853.78;6048364;29;20262;-73
2021/11/09 15:58:32;;;;;;;1.33;0.90;;;;;;;6.58;100.00;101871.41;6047093;29;20477;-73
2021/11/09 16:01:37;;;;;;;0.90;0.90;;;;;;;6.63;100.00;101859.06;6047476;29;20198;-73
2021/11/09 16:04:44;;;;;;;2.00;1.17;;;;;;;6.64;100.00;101844.50;6048100;29;20243;-73
2021/11/09 16:07:51;;;;;;;1.83;1.07;;;;;;;6.72;100.00;101852.66;6048557;29;20204;-74
2021/11/09 16:10:56;;;;;;;3.73;1.60;;;;;;;6.74;100.00;101841.63;6047514;29;20222;-73
2021/11/09 16:14:07;;;;;;;5.47;3.53;;;;;;;6.78;100.00;101845.69;6047218;29;20481;-73
2021/11/09 16:17:13;;;;;;;2.83;1.37;;;;;;;6.83;100.00;101832.50;6048056;29;20221;-73
2021/11/09 16:20:18;;;;;;;2.53;1.00;;;;;;;6.82;100.00;101819.94;6047179;29;20242;-74
2021/11/09 16:23:25;;;;;;;1.60;1.30;;;;;;;6.85;100.00;101835.88;6048032;29;20295;-74
2021/11/09 16:26:29;;;;;;;1.20;1.20;;;;;;;6.82;100.00;101828.06;6048326;29;20215;-73
2021/11/09 16:30:04;;;;;;;1.00;1.00;;;;;;;6.92;100.00;101815.19;6048207;29;20191;-72
2021/11/09 16:33:17;;;;;;;1.30;1.30;;;;;;;6.82;100.00;101803.66;6047609;29;20260;-73
2021/11/09 16:36:22;;;;;;;1.07;1.07;;;;;;;6.84;100.00;101829.59;6047786;29;20290;-73
2021/11/09 16:39:35;;;;;;;19.17;10.30;;;;;;;7.06;100.00;101841.63;6050394;29;20243;-73
2021/11/09 16:42:46;;;;;;;1.60;1.50;;;;;;;7.18;100.00;101821.28;6051929;29;20222;-73